Time;durP1;ratioP1;P1;durP2;ratioP2;P2;SDS_P1;SDS_P2;PMS_P1;PMS_P2;Temp;Humidity;BMP_temperature;BMP_pressure;BME280_temperature;BME280_humidity;BME280_pressure;Samples;Min_cycle;Max_cycle;Signal;HPM_P1;HPM_P2
2021/05/24 00:02:11;;;;;;;5.73;2.57;;;8.70;99.90;;;;;;5068049;28;20486;-82
2021/05/24 00:04:37;;;;;;;2.83;2.60;;;8.60;99.90;;;;;;5067134;28;20398;-82
2021/05/24 00:07:03;;;;;;;3.77;3.57;;;8.70;99.90;;;;;;5068909;28;20442;-83
2021/05/24 00:09:29;;;;;;;3.83;3.30;;;8.90;99.90;;;;;;5067334;28;20438;-82
2021/05/24 00:11:56;;;;;;;6.77;3.20;;;8.60;99.90;;;;;;5067489;28;20406;-82
2021/05/24 00:14:25;;;;;;;4.47;4.07;;;8.70;99.90;;;;;;5068552;28;20414;-81
2021/05/24 00:16:51;;;;;;;3.00;2.73;;;8.60;99.90;;;;;;5068336;28;20386;-82
2021/05/24 00:19:17;;;;;;;3.77;3.10;;;8.60;99.90;;;;;;5068337;28;20458;-82
2021/05/24 00:21:43;;;;;;;3.93;3.63;;;8.50;99.90;;;;;;5068686;28;20394;-82
2021/05/24 00:24:09;;;;;;;3.60;3.30;;;8.40;99.90;;;;;;5067982;28;20421;-83
2021/05/24 00:26:35;;;;;;;3.63;3.33;;;8.40;99.90;;;;;;5050782;28;20502;-82
2021/05/24 00:29:01;;;;;;;4.50;3.70;;;8.30;99.90;;;;;;5068965;28;20405;-83
2021/05/24 00:31:27;;;;;;;3.80;3.40;;;8.20;99.90;;;;;;5067799;28;20402;-82
2021/05/24 00:33:59;;;;;;;4.87;3.47;;;8.30;99.90;;;;;;5068108;28;20375;-81
2021/05/24 00:36:24;;;;;;;4.70;3.67;;;8.20;99.90;;;;;;5067912;28;20402;-82
2021/05/24 00:38:50;;;;;;;4.63;4.00;;;8.20;99.90;;;;;;5067483;28;20175;-82
2021/05/24 00:41:16;;;;;;;3.17;2.97;;;8.20;99.90;;;;;;5067954;28;20198;-82
2021/05/24 00:43:42;;;;;;;3.00;2.80;;;8.20;99.90;;;;;;5068585;28;20223;-82
2021/05/24 00:46:08;;;;;;;7.73;3.77;;;8.20;99.90;;;;;;5067039;28;20196;-82
2021/05/24 00:48:34;;;;;;;3.20;3.00;;;8.10;99.90;;;;;;5066670;28;20156;-81
2021/05/24 00:51:00;;;;;;;3.50;3.20;;;8.20;99.90;;;;;;5066970;28;20409;-83
2021/05/24 00:53:25;;;;;;;4.00;3.70;;;8.30;99.90;;;;;;5068508;28;20156;-82
2021/05/24 00:55:57;;;;;;;3.10;2.77;;;8.30;99.90;;;;;;5051857;28;20164;-82
2021/05/24 00:58:23;;;;;;;3.67;3.37;;;8.40;99.90;;;;;;5071453;28;20223;-83
2021/05/24 01:00:51;;;;;;;3.63;3.17;;;8.50;99.90;;;;;;5070876;28;20402;-83
2021/05/24 01:03:17;;;;;;;4.23;3.53;;;8.50;99.90;;;;;;5069747;28;20398;-83
2021/05/24 01:05:44;;;;;;;3.90;3.50;;;8.50;99.90;;;;;;5069988;28;20390;-81
2021/05/24 01:08:12;;;;;;;3.60;3.30;;;8.50;99.90;;;;;;5075205;28;20410;-81
2021/05/24 01:10:39;;;;;;;3.67;3.33;;;8.50;99.90;;;;;;5076647;28;20390;-79
2021/05/24 01:13:07;;;;;;;2.80;2.60;;;8.50;99.90;;;;;;5077370;28;20387;-80
2021/05/24 01:15:34;;;;;;;3.13;2.93;;;8.40;99.90;;;;;;5073446;28;20406;-82
2021/05/24 01:18:00;;;;;;;4.40;3.30;;;8.30;99.90;;;;;;5068114;28;20394;-83
2021/05/24 01:20:27;;;;;;;3.10;2.80;;;8.30;99.90;;;;;;5070817;28;20430;-80
2021/05/24 01:22:59;;;;;;;3.50;3.20;;;8.30;99.90;;;;;;5072087;28;20176;-82
2021/05/24 01:25:25;;;;;;;4.13;3.50;;;8.30;99.90;;;;;;5069231;28;20399;-82
2021/05/24 01:27:51;;;;;;;8.97;3.13;;;8.50;99.90;;;;;;5068254;28;20450;-82
2021/05/24 01:30:18;;;;;;;5.00;3.47;;;8.30;99.90;;;;;;5068099;28;20402;-82
2021/05/24 01:32:44;;;;;;;6.73;3.50;;;8.30;99.90;;;;;;5067126;28;20402;-82
2021/05/24 01:35:10;;;;;;;3.73;3.07;;;8.30;99.90;;;;;;5068000;28;20391;-83
2021/05/24 01:37:36;;;;;;;3.30;3.07;;;8.20;99.90;;;;;;5067493;28;20164;-80
2021/05/24 01:40:04;;;;;;;4.33;3.90;;;8.20;99.90;;;;;;5066749;28;20406;-82
2021/05/24 01:42:29;;;;;;;4.20;3.83;;;8.30;99.90;;;;;;5066249;28;20168;-82
2021/05/24 01:44:55;;;;;;;4.00;3.07;;;8.30;99.90;;;;;;5066820;28;20395;-82
2021/05/24 01:47:21;;;;;;;5.93;3.97;;;8.20;99.90;;;;;;5068920;28;20223;-82
2021/05/24 01:49:47;;;;;;;3.17;2.97;;;8.20;99.90;;;;;;5071033;28;20219;-82
2021/05/24 01:52:15;;;;;;;3.70;3.43;;;8.20;99.90;;;;;;5070725;28;20286;-82
2021/05/24 01:54:42;;;;;;;4.77;4.30;;;8.10;99.90;;;;;;5070640;28;20398;-82
2021/05/24 01:57:08;;;;;;;3.67;2.73;;;8.10;99.90;;;;;;5069192;28;20402;-81
2021/05/24 01:59:34;;;;;;;3.23;3.03;;;8.30;99.90;;;;;;5070345;28;20391;-82
2021/05/24 02:02:01;;;;;;;4.70;4.30;;;8.30;99.90;;;;;;5069923;28;20441;-82
2021/05/24 02:04:28;;;;;;;14.20;3.50;;;8.30;99.90;;;;;;5069414;28;20398;-82
2021/05/24 02:06:54;;;;;;;6.07;3.60;;;8.40;99.90;;;;;;5071019;28;20434;-82
2021/05/24 02:09:19;;;;;;;3.63;3.20;;;8.50;99.90;;;;;;5071054;28;20490;-81
2021/05/24 02:11:46;;;;;;;4.60;4.00;;;8.30;99.90;;;;;;5070108;28;20164;-80
2021/05/24 02:14:12;;;;;;;10.33;3.80;;;8.20;99.90;;;;;;5070352;28;20210;-80
2021/05/24 02:16:42;;;;;;;3.97;3.67;;;8.20;99.90;;;;;;5070693;28;20399;-82
2021/05/24 02:19:10;;;;;;;4.03;3.63;;;8.30;99.90;;;;;;5070474;28;20393;-82
2021/05/24 02:21:39;;;;;;;5.83;3.60;;;8.20;99.90;;;;;;5068463;28;20898;-82
2021/05/24 02:24:07;;;;;;;3.70;3.40;;;8.20;99.90;;;;;;5069397;28;20858;-82
2021/05/24 02:26:34;;;;;;;4.03;3.70;;;8.20;99.90;;;;;;5069773;28;20438;-82
2021/05/24 02:29:01;;;;;;;3.10;2.90;;;8.10;99.90;;;;;;5069156;28;20435;-81
2021/05/24 02:31:27;;;;;;;4.50;3.60;;;8.20;99.90;;;;;;5052668;28;20421;-81
2021/05/24 02:33:53;;;;;;;4.00;3.30;;;8.30;99.90;;;;;;5070107;28;20414;-82
2021/05/24 02:36:24;;;;;;;4.87;4.20;;;8.40;99.90;;;;;;5069896;28;20397;-82
2021/05/24 02:38:51;;;;;;;6.93;3.20;;;8.60;99.90;;;;;;5069581;28;20174;-82
2021/05/24 02:41:17;;;;;;;5.53;4.30;;;8.90;99.90;;;;;;5069201;28;20414;-82
2021/05/24 02:43:43;;;;;;;3.90;3.50;;;9.10;99.90;;;;;;5069594;28;20527;-83
2021/05/24 02:46:09;;;;;;;4.73;3.30;;;9.20;99.90;;;;;;5069540;28;20454;-82
2021/05/24 02:48:35;;;;;;;7.53;3.53;;;9.20;99.90;;;;;;5069044;28;20180;-82
2021/05/24 02:51:01;;;;;;;5.50;3.30;;;9.20;99.90;;;;;;5068959;28;20218;-82
2021/05/24 02:53:27;;;;;;;4.63;4.03;;;9.20;99.90;;;;;;5069609;28;20462;-82
2021/05/24 02:55:52;;;;;;;3.30;3.10;;;9.30;99.90;;;;;;5069402;28;20398;-83
2021/05/24 02:58:18;;;;;;;3.23;2.93;;;9.20;99.90;;;;;;5069464;28;20399;-82
2021/05/24 03:00:44;;;;;;;3.30;3.10;;;9.20;99.90;;;;;;5069598;28;20489;-82
2021/05/24 03:03:12;;;;;;;3.27;2.97;;;9.20;99.90;;;;;;5069587;28;20390;-83
2021/05/24 03:05:38;;;;;;;2.57;2.47;;;9.10;99.90;;;;;;5069730;28;20572;-81
2021/05/24 03:08:04;;;;;;;3.40;3.17;;;9.20;99.90;;;;;;5069137;28;20556;-82
2021/05/24 03:10:31;;;;;;;2.37;2.27;;;9.20;99.90;;;;;;5069298;28;20397;-82
2021/05/24 03:12:58;;;;;;;6.63;2.50;;;9.20;99.90;;;;;;5068217;28;20512;-83
2021/05/24 03:15:25;;;;;;;2.33;2.07;;;9.20;99.90;;;;;;5069276;28;20395;-83
2021/05/24 03:17:51;;;;;;;2.23;2.03;;;9.20;99.90;;;;;;5069738;28;20398;-82
2021/05/24 03:20:18;;;;;;;3.07;2.80;;;9.20;99.90;;;;;;5068473;28;20402;-82
2021/05/24 03:22:46;;;;;;;3.27;3.07;;;9.20;99.90;;;;;;5069652;28;20409;-83
2021/05/24 03:25:14;;;;;;;2.30;2.10;;;9.20;99.90;;;;;;5069077;28;20398;-83
2021/05/24 03:27:40;;;;;;;3.53;3.10;;;9.30;99.90;;;;;;5068782;28;20456;-82
2021/05/24 03:30:08;;;;;;;2.83;2.63;;;9.30;99.90;;;;;;5068953;28;20395;-82
2021/05/24 03:32:34;;;;;;;3.27;2.97;;;9.40;99.90;;;;;;5068459;28;20402;-83
2021/05/24 03:35:01;;;;;;;2.93;2.63;;;9.40;99.90;;;;;;5069039;28;20399;-82
2021/05/24 03:37:26;;;;;;;4.30;2.90;;;9.50;99.90;;;;;;5070390;28;20401;-83
2021/05/24 03:39:52;;;;;;;1.70;1.60;;;9.50;99.90;;;;;;5069850;28;20398;-82
2021/05/24 03:42:18;;;;;;;3.93;3.10;;;9.50;99.90;;;;;;5052618;28;20179;-83
2021/05/24 03:44:45;;;;;;;3.77;3.40;;;9.40;99.90;;;;;;5070555;28;20163;-82
2021/05/24 03:47:12;;;;;;;2.60;2.40;;;9.40;99.90;;;;;;5069374;28;20204;-81
2021/05/24 03:49:40;;;;;;;2.90;2.60;;;9.50;99.90;;;;;;5072389;28;20395;-80
2021/05/24 03:52:06;;;;;;;4.10;2.67;;;9.50;99.90;;;;;;5077918;28;20386;-82
2021/05/24 03:54:32;;;;;;;3.63;3.33;;;9.60;99.90;;;;;;5074892;28;20459;-83
2021/05/24 03:57:00;;;;;;;6.33;2.83;;;9.50;99.90;;;;;;5076364;28;20370;-82
2021/05/24 03:59:26;;;;;;;10.17;3.20;;;9.50;99.90;;;;;;5073809;28;20407;-82
2021/05/24 04:01:52;;;;;;;3.27;2.97;;;9.50;99.90;;;;;;5071424;28;20160;-82
2021/05/24 04:04:18;;;;;;;3.10;2.80;;;9.60;99.90;;;;;;5070788;28;20179;-82
2021/05/24 04:06:48;;;;;;;2.93;2.73;;;9.60;99.90;;;;;;5070929;28;20203;-82
2021/05/24 04:09:14;;;;;;;2.60;2.50;;;9.50;99.90;;;;;;5072255;28;20445;-82
2021/05/24 04:11:40;;;;;;;3.60;3.27;;;9.50;99.90;;;;;;5068084;28;20395;-83
2021/05/24 04:14:06;;;;;;;4.53;3.47;;;9.50;99.90;;;;;;5068277;28;20219;-83
2021/05/24 04:16:32;;;;;;;5.20;3.57;;;9.50;99.90;;;;;;5069274;28;20171;-83
2021/05/24 04:19:05;;;;;;;4.40;3.50;;;9.40;99.90;;;;;;5069554;28;20164;-82
2021/05/24 04:21:31;;;;;;;2.80;2.60;;;9.50;99.90;;;;;;5068561;28;20179;-83
2021/05/24 04:23:56;;;;;;;3.00;2.80;;;9.60;99.90;;;;;;5067938;28;20430;-83
2021/05/24 04:26:22;;;;;;;4.47;3.73;;;9.60;99.90;;;;;;5053000;28;20191;-79
2021/05/24 04:28:48;;;;;;;3.37;2.90;;;9.60;99.90;;;;;;5075319;28;20214;-79
2021/05/24 04:31:16;;;;;;;9.40;3.60;;;9.60;99.90;;;;;;5075732;28;20160;-79
2021/05/24 04:33:41;;;;;;;3.03;2.83;;;9.60;99.90;;;;;;5059422;28;20199;-78
2021/05/24 04:36:07;;;;;;;3.00;2.80;;;9.60;99.90;;;;;;5073217;28;20411;-81
2021/05/24 04:38:33;;;;;;;2.77;2.60;;;9.70;99.90;;;;;;5069310;28;20670;-80
2021/05/24 04:40:59;;;;;;;2.70;2.50;;;9.70;99.90;;;;;;5073061;28;20156;-80
2021/05/24 04:43:29;;;;;;;3.87;3.53;;;9.70;99.90;;;;;;5053332;28;20243;-82
2021/05/24 04:45:55;;;;;;;3.57;2.60;;;9.70;99.90;;;;;;5069162;28;20395;-83
2021/05/24 04:48:21;;;;;;;3.50;3.20;;;9.70;99.90;;;;;;5068529;28;20402;-79
2021/05/24 04:50:47;;;;;;;3.70;2.70;;;9.80;99.90;;;;;;5069071;28;20432;-82
2021/05/24 04:53:14;;;;;;;8.07;3.30;;;9.70;99.90;;;;;;5068060;28;20391;-82
2021/05/24 04:55:40;;;;;;;3.83;2.67;;;9.60;99.90;;;;;;5068289;28;20172;-82
2021/05/24 04:58:06;;;;;;;2.73;2.53;;;9.80;99.90;;;;;;5067623;28;20483;-81
2021/05/24 05:00:33;;;;;;;4.33;3.07;;;9.80;99.90;;;;;;5068145;28;20194;-83
2021/05/24 05:03:00;;;;;;;3.60;3.37;;;9.80;99.90;;;;;;5050080;28;20453;-82
2021/05/24 05:05:26;;;;;;;4.60;3.43;;;9.80;99.90;;;;;;5067980;28;20395;-83
2021/05/24 05:07:52;;;;;;;4.40;3.30;;;9.90;99.90;;;;;;5067206;28;21015;-83
2021/05/24 05:10:18;;;;;;;3.10;2.90;;;10.00;99.90;;;;;;5067187;28;20395;-82
2021/05/24 05:12:44;;;;;;;4.70;3.10;;;10.00;99.90;;;;;;5066263;28;20164;-82
2021/05/24 05:15:10;;;;;;;3.23;3.03;;;10.10;99.90;;;;;;5066392;28;20431;-82
2021/05/24 05:17:36;;;;;;;3.07;2.73;;;10.10;99.90;;;;;;5067324;28;20398;-82
2021/05/24 05:20:02;;;;;;;4.93;2.83;;;9.90;99.90;;;;;;5067231;28;20447;-82
2021/05/24 05:22:28;;;;;;;3.10;2.90;;;10.00;99.90;;;;;;5070313;28;20172;-82
2021/05/24 05:24:54;;;;;;;3.30;3.10;;;10.10;99.90;;;;;;5072679;28;20882;-82
2021/05/24 05:27:20;;;;;;;8.50;3.40;;;10.20;99.90;;;;;;5071051;28;20468;-81
2021/05/24 05:29:46;;;;;;;4.97;4.57;;;10.20;99.90;;;;;;5071698;28;20160;-82
2021/05/24 05:32:11;;;;;;;8.90;4.83;;;10.20;99.90;;;;;;5072800;28;20168;-82
2021/05/24 05:34:37;;;;;;;6.80;3.80;;;10.30;99.90;;;;;;5071939;28;20179;-83
2021/05/24 05:37:04;;;;;;;5.97;2.87;;;10.30;99.90;;;;;;5089061;28;20191;-81
2021/05/24 05:39:30;;;;;;;3.20;3.00;;;10.20;99.90;;;;;;5072541;28;20489;-82
2021/05/24 05:41:55;;;;;;;3.90;2.90;;;10.10;99.90;;;;;;5055229;28;20465;-81
2021/05/24 05:44:21;;;;;;;3.30;3.00;;;10.00;99.90;;;;;;5089406;28;20222;-81
2021/05/24 05:46:47;;;;;;;3.10;2.83;;;10.00;99.90;;;;;;5086591;28;20214;-81
2021/05/24 05:49:13;;;;;;;2.97;2.67;;;10.20;99.90;;;;;;5087956;28;20711;-80
2021/05/24 05:51:39;;;;;;;3.87;3.17;;;10.20;99.90;;;;;;5088676;28;20167;-82
2021/05/24 05:54:05;;;;;;;3.10;2.80;;;10.40;99.90;;;;;;5055119;28;20186;-80
2021/05/24 05:56:31;;;;;;;3.67;3.43;;;10.40;99.90;;;;;;5055524;28;20439;-80
2021/05/24 05:58:56;;;;;;;3.93;3.63;;;10.60;99.90;;;;;;5088888;28;20470;-81
2021/05/24 06:01:22;;;;;;;3.93;2.77;;;10.70;99.90;;;;;;5089945;28;20214;-81
2021/05/24 06:03:48;;;;;;;3.27;2.97;;;10.70;99.90;;;;;;5089523;28;20159;-81
2021/05/24 06:06:14;;;;;;;3.83;3.27;;;10.80;99.90;;;;;;5069769;28;20211;-81
2021/05/24 06:08:40;;;;;;;3.40;3.10;;;10.90;99.90;;;;;;5070281;28;20434;-81
2021/05/24 06:11:07;;;;;;;3.20;2.90;;;10.90;99.90;;;;;;5070302;28;20182;-82
2021/05/24 06:13:33;;;;;;;3.37;2.97;;;10.90;99.90;;;;;;5071183;28;20399;-81
2021/05/24 06:15:59;;;;;;;4.73;3.20;;;10.90;99.90;;;;;;5071753;28;20402;-81
2021/05/24 06:18:25;;;;;;;9.60;4.13;;;11.00;99.90;;;;;;5071474;28;20490;-81
2021/05/24 06:20:51;;;;;;;4.10;3.47;;;11.10;99.90;;;;;;5071378;28;20395;-82
2021/05/24 06:23:19;;;;;;;10.30;3.70;;;11.20;99.90;;;;;;5071810;28;20160;-81
2021/05/24 06:25:45;;;;;;;5.83;3.77;;;11.20;99.90;;;;;;5072273;28;20164;-81
2021/05/24 06:28:12;;;;;;;3.13;2.83;;;11.30;99.90;;;;;;5072545;28;20444;-81
2021/05/24 06:30:38;;;;;;;6.20;2.97;;;11.40;99.90;;;;;;5072811;28;20164;-81
2021/05/24 06:33:05;;;;;;;3.43;3.17;;;11.50;99.90;;;;;;5071167;28;20390;-81
2021/05/24 06:35:31;;;;;;;5.17;3.13;;;11.60;99.90;;;;;;5077629;28;20414;-80
2021/05/24 06:37:56;;;;;;;4.90;3.47;;;11.60;99.90;;;;;;5063190;28;20456;-79
2021/05/24 06:40:22;;;;;;;5.50;3.10;;;11.80;99.90;;;;;;5079853;28;20398;-79
2021/05/24 06:42:49;;;;;;;5.83;2.93;;;11.80;99.90;;;;;;5079912;28;20227;-81
2021/05/24 06:45:18;;;;;;;3.23;3.03;;;11.80;99.90;;;;;;5081165;28;20227;-81
2021/05/24 06:47:44;;;;;;;3.20;2.70;;;11.80;99.90;;;;;;5071993;28;20446;-80
2021/05/24 06:50:10;;;;;;;2.80;2.60;;;11.80;99.90;;;;;;5071383;28;20491;-81
2021/05/24 06:52:36;;;;;;;8.83;3.10;;;11.90;99.90;;;;;;5070700;28;20613;-81
2021/05/24 06:55:04;;;;;;;4.00;3.70;;;12.00;99.90;;;;;;5070681;28;20425;-81
2021/05/24 06:57:32;;;;;;;9.03;3.43;;;12.00;99.90;;;;;;5069717;28;20469;-81
2021/05/24 06:59:58;;;;;;;3.80;3.50;;;12.20;99.90;;;;;;5069621;28;20840;-81
2021/05/24 07:02:24;;;;;;;5.03;3.53;;;12.20;99.90;;;;;;5070990;28;20160;-80
2021/05/24 07:04:50;;;;;;;3.37;3.07;;;12.30;99.90;;;;;;5070143;28;20169;-80
2021/05/24 07:07:16;;;;;;;3.40;2.80;;;12.40;99.90;;;;;;5068649;28;20333;-81
2021/05/24 07:09:42;;;;;;;2.77;2.57;;;12.40;99.90;;;;;;5070387;28;20166;-81
2021/05/24 07:12:09;;;;;;;4.37;3.10;;;12.40;99.90;;;;;;5070714;28;20458;-80
2021/05/24 07:14:35;;;;;;;3.97;3.10;;;12.20;99.90;;;;;;5053511;28;20179;-81
2021/05/24 07:17:03;;;;;;;3.90;3.00;;;12.60;99.90;;;;;;5071050;28;20437;-80
2021/05/24 07:19:32;;;;;;;6.00;3.30;;;12.60;99.90;;;;;;5053798;28;20160;-82
2021/05/24 07:21:58;;;;;;;4.03;3.60;;;12.60;99.90;;;;;;5070341;28;20386;-83
2021/05/24 07:24:24;;;;;;;3.70;3.40;;;12.40;99.90;;;;;;5069611;28;20188;-83
2021/05/24 07:26:50;;;;;;;3.37;2.60;;;12.30;99.90;;;;;;5068836;28;20191;-82
2021/05/24 07:29:17;;;;;;;3.10;2.90;;;12.50;99.90;;;;;;5070540;28;20171;-83
2021/05/24 07:31:43;;;;;;;5.83;3.37;;;12.70;99.90;;;;;;5070257;28;20528;-82
2021/05/24 07:34:09;;;;;;;2.70;2.50;;;12.80;99.90;;;;;;5068497;28;20391;-83
2021/05/24 07:36:35;;;;;;;2.50;2.30;;;13.00;99.90;;;;;;5052408;28;20399;-82
2021/05/24 07:39:06;;;;;;;4.50;3.03;;;13.10;99.90;;;;;;5070682;28;20467;-83
2021/05/24 07:41:32;;;;;;;3.40;3.10;;;13.40;99.90;;;;;;5070634;28;20160;-83
2021/05/24 07:43:59;;;;;;;2.43;2.23;;;13.60;99.90;;;;;;5070030;28;20477;-83
2021/05/24 07:46:24;;;;;;;3.60;3.03;;;13.30;99.90;;;;;;5052208;28;20199;-83
2021/05/24 07:48:50;;;;;;;4.90;2.73;;;13.20;99.90;;;;;;5070489;28;20390;-83
2021/05/24 07:51:16;;;;;;;2.50;2.30;;;13.10;99.90;;;;;;5071246;28;20161;-83
2021/05/24 07:53:42;;;;;;;1.90;1.70;;;13.10;99.90;;;;;;5072052;28;20164;-83
2021/05/24 07:56:08;;;;;;;3.17;2.00;;;13.00;99.90;;;;;;5070593;28;20628;-82
2021/05/24 07:58:34;;;;;;;2.17;1.97;;;13.10;99.90;;;;;;5073085;28;20425;-80
2021/05/24 08:01:00;;;;;;;4.33;2.43;;;13.30;99.90;;;;;;5078529;28;20152;-82
2021/05/24 08:03:26;;;;;;;1.73;1.63;;;13.50;99.90;;;;;;5069829;28;20175;-83
2021/05/24 08:05:51;;;;;;;1.90;1.80;;;13.50;99.90;;;;;;5069778;28;20172;-81
2021/05/24 08:08:17;;;;;;;2.80;2.10;;;13.60;99.90;;;;;;5069600;28;20199;-81
2021/05/24 08:10:43;;;;;;;1.93;1.83;;;13.60;99.90;;;;;;5069419;28;20171;-81
2021/05/24 08:13:11;;;;;;;6.43;1.60;;;14.00;99.90;;;;;;5068877;28;20171;-81
2021/05/24 08:15:37;;;;;;;1.60;1.50;;;13.90;99.90;;;;;;5052090;28;20168;-81
2021/05/24 08:18:07;;;;;;;1.57;1.47;;;13.80;99.90;;;;;;5067759;28;20478;-81
2021/05/24 08:20:33;;;;;;;2.17;1.60;;;14.00;99.90;;;;;;5067813;28;20562;-81
2021/05/24 08:22:59;;;;;;;2.40;1.50;;;14.10;99.90;;;;;;5067436;28;20754;-81
2021/05/24 08:25:25;;;;;;;2.00;1.67;;;14.20;99.90;;;;;;5068716;28;20398;-82
2021/05/24 08:27:51;;;;;;;1.80;1.70;;;14.40;99.90;;;;;;5069015;28;20442;-82
2021/05/24 08:30:18;;;;;;;1.80;1.70;;;14.60;99.90;;;;;;5067677;28;20160;-82
2021/05/24 08:32:44;;;;;;;1.30;1.20;;;14.70;99.90;;;;;;5067863;28;20399;-81
2021/05/24 08:35:11;;;;;;;1.50;1.40;;;15.00;99.90;;;;;;5050225;28;20405;-81
2021/05/24 08:37:37;;;;;;;1.67;1.20;;;15.20;99.90;;;;;;5068144;28;20455;-81
2021/05/24 08:40:05;;;;;;;1.40;1.30;;;15.40;99.90;;;;;;5067894;28;20395;-82
2021/05/24 08:42:36;;;;;;;2.73;1.60;;;15.50;99.90;;;;;;5066194;28;20458;-83
2021/05/24 08:45:06;;;;;;;5.63;1.30;;;15.60;99.90;;;;;;5050245;28;20405;-83
2021/05/24 08:47:32;;;;;;;1.23;1.10;;;15.70;99.90;;;;;;5034292;28;20454;-83
2021/05/24 08:50:02;;;;;;;1.30;1.10;;;16.00;99.90;;;;;;5067904;28;20471;-82
2021/05/24 08:52:29;;;;;;;20.83;3.50;;;16.20;99.90;;;;;;5068033;28;20454;-83
2021/05/24 08:54:59;;;;;;;1.30;1.10;;;16.40;99.90;;;;;;5068978;28;20395;-85
2021/05/24 08:57:28;;;;;;;1.20;1.10;;;16.50;99.90;;;;;;5069062;28;20436;-86
2021/05/24 08:59:54;;;;;;;1.10;1.00;;;16.50;99.90;;;;;;5085824;28;20409;-83
2021/05/24 09:02:20;;;;;;;1.50;1.40;;;16.40;99.90;;;;;;5087072;28;20425;-82
2021/05/24 09:04:48;;;;;;;1.57;1.47;;;16.60;99.90;;;;;;5069733;28;20240;-83
2021/05/24 09:07:16;;;;;;;1.37;1.27;;;16.50;99.90;;;;;;5036688;28;20514;-83
2021/05/24 09:09:57;;;;;;;1.20;1.10;;;16.60;99.90;;;;;;5071796;28;20418;-82
2021/05/24 09:12:30;;;;;;;1.20;1.10;;;16.80;99.90;;;;;;5048203;28;20264;-83
2021/05/24 09:14:57;;;;;;;7.80;1.30;;;16.80;99.90;;;;;;5049090;28;20490;-82
2021/05/24 09:17:25;;;;;;;1.60;1.33;;;17.20;99.90;;;;;;5037216;28;20798;-83
2021/05/24 09:19:51;;;;;;;1.30;1.20;;;17.20;99.90;;;;;;5038399;28;20399;-82
2021/05/24 09:22:17;;;;;;;2.33;1.40;;;17.10;99.90;;;;;;5055235;28;20482;-81
2021/05/24 09:24:45;;;;;;;1.20;1.10;;;17.20;99.90;;;;;;5035533;28;20404;-82
2021/05/24 09:27:34;;;;;;;1.93;1.50;;;17.20;99.90;;;;;;5031374;28;20227;-82
2021/05/24 09:30:01;;;;;;;1.30;1.00;;;17.30;99.90;;;;;;5047342;28;20430;-83
2021/05/24 09:32:29;;;;;;;3.80;1.40;;;17.30;99.90;;;;;;5046965;28;20773;-83
2021/05/24 09:35:07;;;;;;;1.23;1.03;;;17.30;99.90;;;;;;5030796;28;20394;-82
2021/05/24 09:37:37;;;;;;;1.77;1.40;;;17.50;99.90;;;;;;5027060;28;20503;-83
2021/05/24 09:40:21;;;;;;;1.20;1.10;;;17.40;99.90;;;;;;5027673;28;20428;-83
2021/05/24 09:42:47;;;;;;;1.53;1.20;;;17.20;99.90;;;;;;5038695;28;20549;-83
2021/05/24 09:45:18;;;;;;;1.20;1.10;;;17.30;99.90;;;;;;5050871;28;20402;-81
2021/05/24 09:47:45;;;;;;;1.10;1.00;;;17.30;99.90;;;;;;5066479;28;20493;-83
2021/05/24 09:50:15;;;;;;;1.40;1.30;;;17.10;99.90;;;;;;5066689;28;20414;-82
2021/05/24 09:52:43;;;;;;;1.27;1.10;;;17.30;99.90;;;;;;5067113;28;20406;-83
2021/05/24 09:55:14;;;;;;;1.40;1.30;;;17.40;99.90;;;;;;5065849;28;20421;-83
2021/05/24 09:57:58;;;;;;;1.80;1.20;;;17.40;99.90;;;;;;5049736;28;20441;-83
2021/05/24 10:00:30;;;;;;;1.57;1.43;;;17.60;99.90;;;;;;5068022;28;20447;-83
2021/05/24 10:02:59;;;;;;;1.33;1.23;;;17.70;99.90;;;;;;5050652;28;20410;-83
2021/05/24 10:05:43;;;;;;;1.93;1.27;;;17.90;99.90;;;;;;5050780;28;20493;-83
2021/05/24 10:08:17;;;;;;;2.80;1.20;;;17.80;99.90;;;;;;5041808;28;20466;-83
2021/05/24 10:10:43;;;;;;;1.10;1.00;;;18.00;99.90;;;;;;5072628;28;20425;-83
2021/05/24 10:13:10;;;;;;;1.30;1.20;;;17.90;99.90;;;;;;5072240;28;20391;-83
2021/05/24 10:16:00;;;;;;;1.80;1.30;;;17.90;99.90;;;;;;5072159;28;20469;-80
2021/05/24 10:18:29;;;;;;;1.10;1.00;;;18.00;99.90;;;;;;5052976;28;20415;-83
2021/05/24 10:20:57;;;;;;;1.20;1.10;;;18.30;99.90;;;;;;5070261;28;20419;-83
2021/05/24 10:23:29;;;;;;;1.13;1.03;;;18.20;99.90;;;;;;5054670;28;20467;-83
2021/05/24 10:25:59;;;;;;;2.23;2.00;;;18.20;99.90;;;;;;5072131;28;20891;-83
2021/05/24 10:28:26;;;;;;;1.20;1.10;;;18.10;99.90;;;;;;5071348;28;20432;-83
2021/05/24 10:30:53;;;;;;;2.43;1.10;;;18.20;99.90;;;;;;5070666;28;20406;-83
2021/05/24 10:33:41;;;;;;;3.30;1.30;;;18.20;99.90;;;;;;5072585;28;20465;-82
2021/05/24 10:36:18;;;;;;;2.10;1.90;;;18.10;99.90;;;;;;5036048;28;20944;-83
2021/05/24 10:38:47;;;;;;;1.17;1.07;;;18.20;99.90;;;;;;5052881;28;20414;-83
2021/05/24 10:41:16;;;;;;;1.10;1.00;;;18.10;99.90;;;;;;5034727;28;20476;-82
2021/05/24 10:43:55;;;;;;;3.53;1.63;;;17.90;99.90;;;;;;5033702;28;20447;-83
2021/05/24 10:46:33;;;;;;;1.30;1.00;;;17.90;99.90;;;;;;5016942;28;20442;-83
2021/05/24 10:49:03;;;;;;;1.57;1.30;;;18.10;99.90;;;;;;5040607;28;20470;-82
2021/05/24 10:51:49;;;;;;;2.00;1.30;;;18.30;99.90;;;;;;5067938;28;20438;-81
2021/05/24 10:54:30;;;;;;;1.40;1.30;;;18.30;99.90;;;;;;5068886;28;20757;-83
2021/05/24 10:57:13;;;;;;;1.37;1.20;;;18.50;99.90;;;;;;5064804;28;20409;-83
2021/05/24 10:59:51;;;;;;;1.50;1.40;;;18.70;99.90;;;;;;5052297;28;20447;-82
2021/05/24 11:02:32;;;;;;;1.57;1.20;;;18.60;99.90;;;;;;5068253;28;20409;-83
2021/05/24 11:05:09;;;;;;;1.70;1.60;;;18.80;99.90;;;;;;5035140;28;20417;-82
2021/05/24 11:07:43;;;;;;;1.20;1.10;;;18.80;99.90;;;;;;5049333;28;20453;-82
2021/05/24 11:10:22;;;;;;;1.87;1.00;;;18.90;99.90;;;;;;5070037;28;20386;-83
2021/05/24 11:13:27;;;;;;;1.40;1.13;;;19.20;99.90;;;;;;5070817;28;20406;-81
2021/05/24 11:15:54;;;;;;;1.67;1.10;;;19.20;99.90;;;;;;5090262;28;20469;-80
2021/05/24 11:18:23;;;;;;;7.03;1.20;;;19.30;99.90;;;;;;5093603;28;20389;-83
2021/05/24 11:21:02;;;;;;;1.50;1.20;;;19.70;99.90;;;;;;5058242;28;20405;-83
2021/05/24 11:23:38;;;;;;;2.90;1.63;;;19.50;98.60;;;;;;5055949;28;20394;-82
2021/05/24 11:26:28;;;;;;;1.40;1.30;;;19.60;97.60;;;;;;5056044;28;20405;-83
2021/05/24 11:29:00;;;;;;;1.37;1.27;;;19.70;99.10;;;;;;5090077;28;20397;-83
2021/05/24 11:31:41;;;;;;;1.40;1.30;;;19.80;97.50;;;;;;5052188;28;20474;-83
2021/05/24 11:34:08;;;;;;;3.53;1.80;;;19.60;95.50;;;;;;5081930;28;20515;-82
2021/05/24 11:36:55;;;;;;;1.90;1.33;;;20.10;95.40;;;;;;5055805;28;20485;-83
2021/05/24 11:39:30;;;;;;;1.30;1.20;;;20.00;93.80;;;;;;5068993;28;20454;-83
2021/05/24 11:42:20;;;;;;;1.40;1.30;;;20.10;93.90;;;;;;5051002;28;20405;-84
2021/05/24 11:44:48;;;;;;;1.20;1.10;;;20.10;93.70;;;;;;5069163;28;20426;-83
2021/05/24 11:47:19;;;;;;;1.10;1.00;;;20.20;93.20;;;;;;5049094;28;20459;-83
2021/05/24 11:49:50;;;;;;;1.50;1.20;;;20.20;93.70;;;;;;5048903;28;20395;-84
2021/05/24 11:52:19;;;;;;;2.30;1.40;;;20.10;92.50;;;;;;5074711;28;20457;-82
2021/05/24 11:54:50;;;;;;;1.20;1.10;;;20.20;92.70;;;;;;5075023;28;20430;-84
2021/05/24 11:57:21;;;;;;;1.30;1.20;;;20.20;94.10;;;;;;5057426;28;20401;-83
2021/05/24 11:59:48;;;;;;;1.50;1.40;;;20.20;92.40;;;;;;5055193;28;20399;-83
2021/05/24 12:02:15;;;;;;;4.70;1.43;;;20.10;92.70;;;;;;5069878;28;20387;-83
2021/05/24 12:04:45;;;;;;;2.70;1.10;;;19.90;93.20;;;;;;5068589;28;20399;-83
2021/05/24 12:07:23;;;;;;;1.20;1.10;;;19.90;94.10;;;;;;5053254;28;20439;-81
2021/05/24 12:09:52;;;;;;;1.97;1.20;;;19.80;93.30;;;;;;5072400;28;20402;-83
2021/05/24 12:12:21;;;;;;;1.63;1.20;;;19.60;93.10;;;;;;5039757;28;20442;-82
2021/05/24 12:14:50;;;;;;;1.10;1.00;;;19.60;94.00;;;;;;5036673;28;20403;-83
2021/05/24 12:17:18;;;;;;;2.43;2.33;;;19.60;94.20;;;;;;5069095;28;20407;-83
2021/05/24 12:19:45;;;;;;;1.47;1.37;;;19.80;95.10;;;;;;5069376;28;20402;-83
2021/05/24 12:22:13;;;;;;;3.10;1.80;;;19.90;94.50;;;;;;5069382;28;20533;-82
2021/05/24 12:24:42;;;;;;;3.63;1.37;;;19.90;94.60;;;;;;5069420;28;20401;-83
2021/05/24 12:27:09;;;;;;;2.30;1.20;;;19.80;94.70;;;;;;5070225;28;20498;-83
2021/05/24 12:29:56;;;;;;;1.57;1.47;;;19.90;95.20;;;;;;5069787;28;20497;-82
2021/05/24 12:32:40;;;;;;;1.20;1.10;;;19.90;95.50;;;;;;5068997;28;20402;-83
2021/05/24 12:35:29;;;;;;;1.80;1.30;;;20.00;95.90;;;;;;5068434;28;20390;-84
2021/05/24 12:38:07;;;;;;;1.80;1.37;;;19.90;95.30;;;;;;5086109;28;20467;-81
2021/05/24 12:40:33;;;;;;;1.50;1.30;;;20.10;95.50;;;;;;5071220;28;20420;-82
2021/05/24 12:42:59;;;;;;;2.90;2.00;;;20.50;94.70;;;;;;5069740;28;20476;-82
2021/05/24 12:45:29;;;;;;;1.73;1.63;;;20.60;94.90;;;;;;5070159;28;20509;-82
2021/05/24 12:48:10;;;;;;;1.63;1.53;;;20.70;94.90;;;;;;5086160;28;20457;-81
2021/05/24 12:50:36;;;;;;;3.10;1.80;;;21.20;93.70;;;;;;5086338;28;20435;-81
2021/05/24 12:53:13;;;;;;;1.90;1.60;;;21.20;94.10;;;;;;5069012;28;20398;-81
2021/05/24 12:55:40;;;;;;;1.20;1.10;;;21.20;93.90;;;;;;5069545;28;20246;-82
2021/05/24 12:58:16;;;;;;;1.50;1.27;;;20.80;92.90;;;;;;5085957;28;20413;-81